createdAt,value
2022-10-18T00:00:05.306Z,0.00
2022-10-18T00:01:05.316Z,0.00
2022-10-18T00:02:05.371Z,0.00
2022-10-18T00:03:05.320Z,0.00
2022-10-18T00:04:05.343Z,0.00
2022-10-18T00:05:05.350Z,0.00
2022-10-18T00:06:05.354Z,0.00
2022-10-18T00:07:05.341Z,0.00
2022-10-18T00:08:05.375Z,0.00
2022-10-18T00:09:05.344Z,0.00
2022-10-18T00:10:05.377Z,0.00
2022-10-18T00:11:05.344Z,0.00
2022-10-18T00:12:05.347Z,0.00
2022-10-18T00:13:05.342Z,0.00
2022-10-18T00:14:05.349Z,0.00
2022-10-18T00:15:05.372Z,0.00
2022-10-18T00:16:05.357Z,0.00
2022-10-18T00:17:58.995Z,0.00
2022-10-18T00:18:59.996Z,0.00
2022-10-18T00:19:59.976Z,0.00
2022-10-18T00:20:59.998Z,0.00
2022-10-18T00:21:59.958Z,0.00
2022-10-18T00:22:59.948Z,0.00
2022-10-18T00:23:59.936Z,0.00
2022-10-18T00:24:59.929Z,0.00
2022-10-18T00:25:59.914Z,0.00
2022-10-18T00:26:59.945Z,0.00
2022-10-18T00:27:59.893Z,0.00
2022-10-18T00:28:59.912Z,0.00
2022-10-18T00:29:59.871Z,0.00
2022-10-18T00:30:59.868Z,0.00
2022-10-18T00:31:59.851Z,0.00
2022-10-18T00:32:59.866Z,0.00
2022-10-18T00:33:59.843Z,0.00
2022-10-18T00:34:59.821Z,0.00
2022-10-18T00:35:59.835Z,0.00
2022-10-18T00:36:59.801Z,0.00
2022-10-18T00:37:59.786Z,0.00
2022-10-18T00:38:59.780Z,0.00
2022-10-18T00:39:59.768Z,0.00
2022-10-18T00:40:59.757Z,0.00
2022-10-18T00:41:59.766Z,0.00
2022-10-18T00:42:59.739Z,0.00
2022-10-18T00:43:59.726Z,0.00
2022-10-18T00:44:59.731Z,0.00
2022-10-18T00:45:59.701Z,0.00
2022-10-18T00:46:59.693Z,0.00
2022-10-18T00:47:59.698Z,0.00
2022-10-18T00:48:59.714Z,0.00
2022-10-18T00:49:59.669Z,0.00
2022-10-18T00:50:59.667Z,0.00
2022-10-18T00:51:59.638Z,0.00
2022-10-18T00:52:59.629Z,0.00
2022-10-18T00:53:59.640Z,0.00
2022-10-18T00:54:59.613Z,0.00
2022-10-18T00:55:59.601Z,0.00
2022-10-18T00:56:59.597Z,0.00
2022-10-18T00:57:59.581Z,0.00
2022-10-18T00:58:59.592Z,0.00
2022-10-18T00:59:59.554Z,0.00
2022-10-18T01:00:59.547Z,0.00
2022-10-18T01:01:59.716Z,0.00
2022-10-18T01:02:59.524Z,0.00
2022-10-18T01:03:59.542Z,0.00
2022-10-18T01:04:59.527Z,0.00
2022-10-18T01:05:59.506Z,0.00
2022-10-18T01:06:59.484Z,0.00
2022-10-18T01:07:59.468Z,0.00
2022-10-18T01:08:59.484Z,0.00
2022-10-18T01:09:59.450Z,0.00
2022-10-18T01:10:59.458Z,0.00
2022-10-18T01:11:59.430Z,0.00
2022-10-18T01:12:59.443Z,0.00
2022-10-18T01:13:59.411Z,0.00
2022-10-18T01:14:59.423Z,0.00
2022-10-18T01:15:59.403Z,0.00
2022-10-18T01:16:59.375Z,0.00
2022-10-18T01:17:59.373Z,0.00
2022-10-18T01:18:59.360Z,0.00
2022-10-18T01:19:59.346Z,0.00
2022-10-18T01:20:59.331Z,0.00
2022-10-18T01:21:59.347Z,0.00
2022-10-18T01:22:59.310Z,0.00
2022-10-18T01:23:59.302Z,0.00
2022-10-18T01:24:59.339Z,0.00
2022-10-18T01:25:59.281Z,0.00
2022-10-18T01:26:59.309Z,0.00
2022-10-18T01:27:59.273Z,0.00
2022-10-18T01:28:59.310Z,0.00
2022-10-18T01:29:59.238Z,0.00
2022-10-18T01:30:59.237Z,0.00
2022-10-18T01:31:59.660Z,0.00
2022-10-18T01:32:59.221Z,0.00
2022-10-18T01:33:59.303Z,0.00
2022-10-18T01:34:59.182Z,0.00
2022-10-18T01:35:59.186Z,0.00
2022-10-18T01:36:59.161Z,0.00
2022-10-18T01:37:59.166Z,0.00
2022-10-18T01:38:59.145Z,0.00
2022-10-18T01:39:59.132Z,0.00
2022-10-18T01:40:59.120Z,0.00
2022-10-18T01:41:59.110Z,0.00
2022-10-18T01:42:59.144Z,0.00
2022-10-18T01:43:59.090Z,0.00
2022-10-18T01:44:59.078Z,0.00
2022-10-18T01:45:59.079Z,0.00
2022-10-18T01:46:59.055Z,0.00
2022-10-18T01:47:59.048Z,0.00
2022-10-18T01:48:59.048Z,0.00
2022-10-18T01:49:59.029Z,0.00
2022-10-18T01:50:59.020Z,0.00
2022-10-18T01:51:59.065Z,0.00
2022-10-18T01:52:59.023Z,0.00
2022-10-18T01:53:58.985Z,0.00
2022-10-18T01:54:58.970Z,0.00
2022-10-18T01:55:58.975Z,0.00
2022-10-18T01:56:58.954Z,0.00
2022-10-18T01:57:58.945Z,0.00
2022-10-18T01:58:58.930Z,0.00
2022-10-18T01:59:58.926Z,0.00
2022-10-18T02:00:58.965Z,0.00
2022-10-18T02:01:58.903Z,0.00
2022-10-18T02:02:58.896Z,0.00
2022-10-18T02:03:58.878Z,0.00
2022-10-18T02:04:58.866Z,0.00
2022-10-18T02:05:58.858Z,0.00
2022-10-18T02:06:58.856Z,0.00
2022-10-18T02:08:12.176Z,0.00
2022-10-18T02:08:58.829Z,0.00
2022-10-18T02:09:58.854Z,0.00
2022-10-18T02:10:58.805Z,0.00
2022-10-18T02:11:58.804Z,0.00
2022-10-18T02:12:58.783Z,0.00
2022-10-18T02:13:58.773Z,0.00
2022-10-18T02:14:58.760Z,0.00
2022-10-18T02:15:58.753Z,0.00
2022-10-18T02:16:58.738Z,0.00
2022-10-18T02:17:58.746Z,0.00
2022-10-18T02:18:58.715Z,0.00
2022-10-18T02:19:58.708Z,0.00
2022-10-18T02:20:58.696Z,0.00
2022-10-18T02:21:58.685Z,0.00
2022-10-18T02:22:58.672Z,0.00
2022-10-18T02:23:58.676Z,0.00
2022-10-18T02:24:58.654Z,0.00
2022-10-18T02:25:58.646Z,0.00
2022-10-18T02:26:58.633Z,0.00
2022-10-18T02:27:58.637Z,0.00
2022-10-18T02:28:58.611Z,0.00
2022-10-18T02:29:58.735Z,0.00
2022-10-18T02:30:57.588Z,0.00
2022-10-18T02:31:58.581Z,0.00
2022-10-18T02:32:58.579Z,0.00
2022-10-18T02:33:58.571Z,0.00
2022-10-18T02:34:58.548Z,0.00
2022-10-18T02:35:58.541Z,0.00
2022-10-18T02:36:58.530Z,0.00
2022-10-18T02:37:58.522Z,0.00
2022-10-18T02:38:58.517Z,0.00
2022-10-18T02:39:58.509Z,0.00
2022-10-18T02:40:58.484Z,0.00
2022-10-18T02:41:58.477Z,0.00
2022-10-18T02:42:58.470Z,0.00
2022-10-18T02:43:58.456Z,0.00
2022-10-18T02:44:58.450Z,0.00
2022-10-18T02:45:58.434Z,0.00
2022-10-18T02:46:58.420Z,0.00
2022-10-18T02:47:58.425Z,0.00
2022-10-18T02:48:58.410Z,0.00
2022-10-18T02:49:58.400Z,0.00
2022-10-18T02:50:58.378Z,0.00
2022-10-18T02:51:58.389Z,0.00
2022-10-18T02:52:58.357Z,0.00
2022-10-18T02:53:58.359Z,0.00
2022-10-18T02:54:58.355Z,0.00
2022-10-18T02:55:58.330Z,0.00
2022-10-18T02:56:58.317Z,0.00
2022-10-18T02:57:58.306Z,0.00
2022-10-18T02:58:58.301Z,0.00
2022-10-18T02:59:58.288Z,0.00
2022-10-18T03:00:58.282Z,0.00
2022-10-18T03:01:58.264Z,0.00
2022-10-18T03:02:58.251Z,0.00
2022-10-18T03:03:58.244Z,0.00
2022-10-18T03:04:58.265Z,0.00
2022-10-18T03:05:58.223Z,0.00
2022-10-18T03:06:58.208Z,0.00
2022-10-18T03:07:58.202Z,0.00
2022-10-18T03:08:58.189Z,0.00
2022-10-18T03:09:58.180Z,0.00
2022-10-18T03:10:58.187Z,0.00
2022-10-18T03:11:58.161Z,0.00
2022-10-18T03:12:58.174Z,0.00
2022-10-18T03:13:58.154Z,0.00
2022-10-18T03:14:58.123Z,0.00
2022-10-18T03:15:58.115Z,0.00
2022-10-18T03:16:58.119Z,0.00
2022-10-18T03:17:58.097Z,0.00
2022-10-18T03:18:58.082Z,0.00
2022-10-18T03:19:58.089Z,0.00
2022-10-18T03:20:58.061Z,0.00
2022-10-18T03:21:58.055Z,0.00
2022-10-18T03:22:58.060Z,0.00
2022-10-18T03:23:58.042Z,0.00
2022-10-18T03:24:58.021Z,0.00
2022-10-18T03:25:58.107Z,0.00
2022-10-18T03:26:57.997Z,0.00
2022-10-18T03:27:57.994Z,0.00
2022-10-18T03:28:58.046Z,0.00
2022-10-18T03:29:57.970Z,0.00
2022-10-18T03:30:57.958Z,0.00
2022-10-18T03:31:57.955Z,0.00
2022-10-18T03:32:57.936Z,0.00
2022-10-18T03:33:57.926Z,0.00
2022-10-18T03:34:57.926Z,0.00
2022-10-18T03:35:57.901Z,0.00
2022-10-18T03:37:00.998Z,0.00
2022-10-18T03:37:57.900Z,0.00
2022-10-18T03:38:57.887Z,0.00
2022-10-18T03:39:57.875Z,0.00
2022-10-18T03:40:57.854Z,0.00
2022-10-18T03:41:57.839Z,0.00
2022-10-18T03:42:57.835Z,0.00
2022-10-18T03:43:57.822Z,0.00
2022-10-18T03:44:57.810Z,0.00
2022-10-18T03:45:57.808Z,0.00
2022-10-18T03:46:57.798Z,0.00
2022-10-18T03:47:57.778Z,0.00
2022-10-18T03:48:57.772Z,0.00
2022-10-18T03:49:57.755Z,0.00
2022-10-18T03:50:57.765Z,0.00
2022-10-18T03:51:57.762Z,0.00
2022-10-18T03:52:57.725Z,0.00
2022-10-18T03:53:57.713Z,0.00
2022-10-18T03:54:57.705Z,0.00
2022-10-18T03:55:57.702Z,0.00
2022-10-18T03:56:57.685Z,0.00
2022-10-18T03:57:57.682Z,0.00
2022-10-18T03:58:57.666Z,0.00
2022-10-18T03:59:57.649Z,0.00
2022-10-18T04:00:57.642Z,0.00
2022-10-18T04:01:57.680Z,0.00
2022-10-18T04:02:57.621Z,0.00
2022-10-18T04:03:57.604Z,0.00
2022-10-18T04:04:57.611Z,0.00
2022-10-18T04:05:57.586Z,0.00
2022-10-18T04:06:57.577Z,0.00
2022-10-18T04:07:57.575Z,0.00
2022-10-18T04:08:57.560Z,0.00
2022-10-18T04:09:57.543Z,0.00
2022-10-18T04:10:57.565Z,0.00
2022-10-18T04:11:57.525Z,0.00
2022-10-18T04:12:57.526Z,0.00
2022-10-18T04:13:57.556Z,0.00
2022-10-18T04:14:57.528Z,0.00
2022-10-18T04:15:57.479Z,0.00
2022-10-18T04:16:57.474Z,0.00
2022-10-18T04:17:57.461Z,0.00
2022-10-18T04:18:57.460Z,0.00
2022-10-18T04:19:57.439Z,0.00
2022-10-18T04:20:57.438Z,0.00
2022-10-18T04:21:57.417Z,0.00
2022-10-18T04:22:57.409Z,0.00
2022-10-18T04:23:57.402Z,0.00
2022-10-18T04:24:57.389Z,0.00
2022-10-18T04:25:57.375Z,0.00
2022-10-18T04:26:57.368Z,0.00
2022-10-18T04:27:57.367Z,0.00
2022-10-18T04:28:57.385Z,0.00
2022-10-18T04:29:57.340Z,0.00
2022-10-18T04:30:57.326Z,0.00
2022-10-18T04:31:57.310Z,0.00
2022-10-18T04:32:57.304Z,0.00
2022-10-18T04:33:57.289Z,0.00
2022-10-18T04:34:57.291Z,0.00
2022-10-18T04:35:57.285Z,0.00
2022-10-18T04:36:57.276Z,0.00
2022-10-18T04:37:57.247Z,0.00
2022-10-18T04:38:57.239Z,0.00
2022-10-18T04:39:57.240Z,0.00
2022-10-18T04:40:57.218Z,0.00
2022-10-18T04:41:57.207Z,0.00
2022-10-18T04:42:57.198Z,0.00
2022-10-18T04:43:57.183Z,0.00
2022-10-18T04:44:57.174Z,0.00
2022-10-18T04:45:57.190Z,0.00
2022-10-18T04:46:57.182Z,0.00
2022-10-18T04:47:57.146Z,0.00
2022-10-18T04:48:57.135Z,0.00
2022-10-18T04:49:57.118Z,0.00
2022-10-18T04:50:57.136Z,0.00
2022-10-18T04:51:57.099Z,0.00
2022-10-18T04:52:57.095Z,0.00
2022-10-18T04:53:57.079Z,0.00
2022-10-18T04:54:57.068Z,0.00
2022-10-18T04:55:57.054Z,0.00
2022-10-18T04:56:57.071Z,0.00
2022-10-18T04:57:57.035Z,0.00
2022-10-18T04:58:57.029Z,0.00
2022-10-18T04:59:57.015Z,0.00
2022-10-18T05:00:57.006Z,0.00
2022-10-18T05:01:57.146Z,0.00
2022-10-18T05:02:56.983Z,0.00
2022-10-18T05:03:56.970Z,0.00
2022-10-18T05:04:56.963Z,0.00
2022-10-18T05:06:01.890Z,0.00
2022-10-18T05:06:57.007Z,0.00
2022-10-18T05:07:56.929Z,0.00
2022-10-18T05:08:57.019Z,0.00
2022-10-18T05:09:56.907Z,0.00
2022-10-18T05:10:56.992Z,0.00
2022-10-18T05:11:56.885Z,0.00
2022-10-18T05:12:56.878Z,0.00
2022-10-18T05:13:56.887Z,0.00
2022-10-18T05:14:56.939Z,1.00
2022-10-18T05:15:56.841Z,0.00
2022-10-18T05:16:56.799Z,1.00
2022-10-18T05:17:56.791Z,1.00
2022-10-18T05:18:56.823Z,0.00
2022-10-18T05:19:56.801Z,0.00
2022-10-18T05:20:56.791Z,2.00
2022-10-18T05:21:56.726Z,1.00
2022-10-18T05:22:56.797Z,0.00
2022-10-18T05:23:56.781Z,0.00
2022-10-18T05:24:56.754Z,0.00
2022-10-18T05:25:56.696Z,4.00
2022-10-18T05:26:56.678Z,4.00
2022-10-18T05:27:56.694Z,3.00
2022-10-18T05:28:56.719Z,2.00
2022-10-18T05:29:58.880Z,1.00
2022-10-18T05:30:56.671Z,1.00
2022-10-18T05:31:56.619Z,2.00
2022-10-18T05:32:56.698Z,2.00
2022-10-18T05:33:56.599Z,4.00
2022-10-18T05:34:56.613Z,4.00
2022-10-18T05:35:56.615Z,3.00
2022-10-18T05:36:56.678Z,4.00
2022-10-18T05:37:56.570Z,6.00
2022-10-18T05:38:58.640Z,5.00
2022-10-18T05:39:56.533Z,5.00
2022-10-18T05:40:56.526Z,8.00
2022-10-18T05:41:56.537Z,6.00
2022-10-18T05:42:56.504Z,10.00
2022-10-18T05:43:56.512Z,11.00
2022-10-18T05:44:56.486Z,9.00
2022-10-18T05:45:56.470Z,12.00
2022-10-18T05:46:56.463Z,14.00
2022-10-18T05:47:56.507Z,16.00
2022-10-18T05:48:56.462Z,15.00
2022-10-18T05:49:56.473Z,16.00
2022-10-18T05:50:56.423Z,18.00
2022-10-18T05:51:55.439Z,22.00
2022-10-18T05:53:02.651Z,22.00
2022-10-18T05:53:56.397Z,23.00
2022-10-18T05:54:56.386Z,27.00
2022-10-18T05:55:56.365Z,30.00
2022-10-18T05:56:56.380Z,31.00
2022-10-18T05:57:56.342Z,36.00
2022-10-18T05:58:56.365Z,33.00
2022-10-18T05:59:56.328Z,33.00
2022-10-18T06:00:56.312Z,29.00
2022-10-18T06:01:56.331Z,34.00
2022-10-18T06:03:00.141Z,31.00
2022-10-18T06:03:56.281Z,27.00
2022-10-18T06:04:56.270Z,31.00
2022-10-18T06:05:56.276Z,30.00
2022-10-18T06:06:56.248Z,28.00
2022-10-18T06:07:56.258Z,30.00
2022-10-18T06:08:56.330Z,32.00
2022-10-18T06:09:56.213Z,34.00
2022-10-18T06:10:56.236Z,39.00
2022-10-18T06:11:56.195Z,41.00
2022-10-18T06:12:56.217Z,41.00
2022-10-18T06:13:56.193Z,38.00
2022-10-18T06:14:56.185Z,42.00
2022-10-18T06:15:56.154Z,45.00
2022-10-18T06:16:56.146Z,41.00
2022-10-18T06:18:54.353Z,27.00
2022-10-18T06:19:55.323Z,28.00
2022-10-18T06:20:55.312Z,20.00
2022-10-18T06:21:55.300Z,21.00
2022-10-18T06:22:55.286Z,21.00
2022-10-18T06:23:55.290Z,19.00
2022-10-18T06:24:57.220Z,20.00
2022-10-18T06:25:55.258Z,19.00
2022-10-18T06:26:55.285Z,19.00
2022-10-18T06:27:55.236Z,21.00
2022-10-18T06:28:55.305Z,21.00
2022-10-18T06:29:55.215Z,19.00
2022-10-18T06:30:55.202Z,19.00
2022-10-18T06:31:55.195Z,23.00
2022-10-18T06:32:55.181Z,25.00
2022-10-18T06:33:55.277Z,30.00
2022-10-18T06:34:55.249Z,32.00
2022-10-18T06:35:55.223Z,33.00
2022-10-18T06:36:56.404Z,38.00
2022-10-18T06:37:55.210Z,45.00
2022-10-18T06:38:55.188Z,52.00
2022-10-18T06:39:54.127Z,57.00
2022-10-18T06:40:55.164Z,73.00
2022-10-18T06:41:55.162Z,82.00
2022-10-18T06:43:00.232Z,99.00
2022-10-18T06:43:55.065Z,94.00
2022-10-18T06:44:55.050Z,80.00
2022-10-18T06:45:55.051Z,87.00
2022-10-18T06:46:55.047Z,99.00
2022-10-18T06:47:55.014Z,81.00
2022-10-18T06:48:55.009Z,82.00
2022-10-18T06:49:54.993Z,72.00
2022-10-18T06:50:55.007Z,81.00
2022-10-18T06:51:54.971Z,82.00
2022-10-18T06:52:54.971Z,88.00
2022-10-18T06:54:06.290Z,83.00
2022-10-18T06:54:54.950Z,80.00
2022-10-18T06:55:54.928Z,78.00
2022-10-18T06:56:54.942Z,76.00
2022-10-18T06:57:54.907Z,62.00
2022-10-18T06:58:54.972Z,50.00
2022-10-18T06:59:54.884Z,56.00
2022-10-18T07:00:54.873Z,68.00
2022-10-18T07:01:54.962Z,84.00
2022-10-18T07:02:54.852Z,102.00
2022-10-18T07:03:54.845Z,118.00
2022-10-18T07:04:54.843Z,132.00
2022-10-18T07:05:54.817Z,142.00
2022-10-18T07:06:54.810Z,150.00
2022-10-18T07:07:56.452Z,158.00
2022-10-18T07:08:54.791Z,167.00
2022-10-18T07:09:54.774Z,179.00
2022-10-18T07:10:54.767Z,207.00
2022-10-18T07:11:54.759Z,233.00
2022-10-18T07:13:07.978Z,241.00
2022-10-18T07:13:54.740Z,252.00
2022-10-18T07:14:54.727Z,253.00
2022-10-18T07:15:54.706Z,230.00
2022-10-18T07:16:54.698Z,226.00
2022-10-18T07:17:54.705Z,228.00
2022-10-18T07:18:54.681Z,218.00
2022-10-18T07:19:54.676Z,239.00
2022-10-18T07:20:54.661Z,249.00
2022-10-18T07:21:54.642Z,268.00
2022-10-18T07:22:54.635Z,306.00
2022-10-18T07:23:54.644Z,382.00
2022-10-18T07:24:54.613Z,455.00
2022-10-18T07:25:54.601Z,448.00
2022-10-18T07:26:54.591Z,470.00
2022-10-18T07:27:54.578Z,408.00
2022-10-18T07:28:54.659Z,324.00
2022-10-18T07:29:54.559Z,328.00
2022-10-18T07:30:54.546Z,309.00
2022-10-18T07:31:54.532Z,301.00
2022-10-18T07:32:54.525Z,278.00
2022-10-18T07:33:54.529Z,282.00
2022-10-18T07:34:54.546Z,320.00
2022-10-18T07:35:54.500Z,479.00
2022-10-18T07:36:54.603Z,599.00
2022-10-18T07:37:54.467Z,351.00
2022-10-18T07:38:54.461Z,843.00
2022-10-18T07:39:54.447Z,519.00
2022-10-18T07:40:54.437Z,512.00
2022-10-18T07:41:54.435Z,456.00
2022-10-18T07:42:54.427Z,532.00
2022-10-18T07:43:54.419Z,389.00
2022-10-18T07:44:54.393Z,314.00
2022-10-18T07:45:54.381Z,342.00
2022-10-18T07:46:54.391Z,369.00
2022-10-18T07:47:54.359Z,329.00
2022-10-18T07:48:54.351Z,306.00
2022-10-18T07:49:54.341Z,290.00
2022-10-18T07:50:54.331Z,341.00
2022-10-18T07:51:54.325Z,338.00
2022-10-18T07:52:54.308Z,271.00
2022-10-18T07:53:54.294Z,416.00
2022-10-18T07:54:54.306Z,453.00
2022-10-18T07:55:54.273Z,446.00
2022-10-18T07:56:54.278Z,446.00
2022-10-18T07:57:54.265Z,415.00
2022-10-18T07:58:54.250Z,375.00
2022-10-18T07:59:54.232Z,314.00
2022-10-18T08:00:54.236Z,348.00
2022-10-18T08:01:54.294Z,391.00
2022-10-18T08:02:54.203Z,458.00
2022-10-18T08:03:54.191Z,548.00
2022-10-18T08:04:54.180Z,757.00
2022-10-18T08:05:54.168Z,1995.00
2022-10-18T08:06:54.171Z,1497.00
2022-10-18T08:07:54.145Z,853.00
2022-10-18T08:08:54.192Z,1812.00
2022-10-18T08:09:54.133Z,773.00
2022-10-18T08:10:54.156Z,879.00
2022-10-18T08:11:54.103Z,1787.00
2022-10-18T08:12:54.095Z,1036.00
2022-10-18T08:13:54.089Z,3064.00
2022-10-18T08:14:54.071Z,1152.00
2022-10-18T08:15:54.056Z,1758.00
2022-10-18T08:16:54.076Z,3209.00
2022-10-18T08:17:54.058Z,1785.00
2022-10-18T08:18:54.029Z,2512.00
2022-10-18T08:20:11.484Z,2140.00
2022-10-18T08:20:54.016Z,2297.00
2022-10-18T08:21:54.015Z,2257.00
2022-10-18T08:22:59.083Z,2193.00
2022-10-18T08:23:53.990Z,2165.00
2022-10-18T08:24:53.968Z,2141.00
2022-10-18T08:25:53.974Z,2211.00
2022-10-18T08:26:53.948Z,2163.00
2022-10-18T08:27:53.927Z,2199.00
2022-10-18T08:29:09.857Z,2200.00
2022-10-18T08:29:53.971Z,2247.00
2022-10-18T08:30:53.898Z,4176.00
2022-10-18T08:31:53.886Z,1993.00
2022-10-18T08:32:53.877Z,2636.00
2022-10-18T08:33:53.873Z,2350.00
2022-10-18T08:34:53.853Z,2287.00
2022-10-18T08:35:53.864Z,2464.00
2022-10-18T08:36:53.831Z,2341.00
2022-10-18T08:37:53.819Z,4332.00
2022-10-18T08:38:53.808Z,2991.00
2022-10-18T08:39:53.826Z,1881.00
2022-10-18T08:40:53.787Z,2584.00
2022-10-18T08:41:53.779Z,2326.00
2022-10-18T08:42:53.765Z,3375.00
2022-10-18T08:43:53.751Z,2488.00
2022-10-18T08:44:53.745Z,4681.00
2022-10-18T08:45:53.759Z,1458.00
2022-10-18T08:46:53.735Z,1726.00
2022-10-18T08:47:53.709Z,2259.00
2022-10-18T08:48:53.702Z,5545.00
2022-10-18T08:49:53.692Z,1758.00
2022-10-18T08:50:53.706Z,2491.00
2022-10-18T08:51:53.671Z,1951.00
2022-10-18T08:52:53.659Z,2560.00
2022-10-18T08:53:53.646Z,6348.00
2022-10-18T08:54:53.640Z,3061.00
2022-10-18T08:55:53.627Z,1030.00
2022-10-18T08:56:53.645Z,1373.00
2022-10-18T08:57:53.617Z,1232.00
2022-10-18T08:58:53.596Z,1296.00
2022-10-18T08:59:53.588Z,1436.00
2022-10-18T09:00:53.621Z,1913.00
2022-10-18T09:01:53.563Z,2765.00
2022-10-18T09:02:53.621Z,6033.00
2022-10-18T09:03:53.541Z,1639.00
2022-10-18T09:04:53.536Z,2195.00
2022-10-18T09:05:53.519Z,5466.00
2022-10-18T09:06:53.511Z,1676.00
2022-10-18T09:07:53.549Z,1057.00
2022-10-18T09:08:53.488Z,2909.00
2022-10-18T09:09:53.474Z,831.00
2022-10-18T09:10:53.509Z,1113.00
2022-10-18T09:11:56.784Z,1978.00
2022-10-18T09:12:53.491Z,2645.00
2022-10-18T09:13:53.433Z,2859.00
2022-10-18T09:14:53.424Z,3257.00
2022-10-18T09:15:53.413Z,2959.00
2022-10-18T09:16:53.401Z,3022.00
2022-10-18T09:17:53.398Z,4974.00
2022-10-18T09:18:53.404Z,8954.00
2022-10-18T09:19:53.396Z,1375.00
2022-10-18T09:20:53.371Z,1905.00
2022-10-18T09:21:53.379Z,1219.00
2022-10-18T09:22:53.371Z,2822.00
2022-10-18T09:23:53.332Z,2031.00
2022-10-18T09:24:53.345Z,1501.00
2022-10-18T09:25:53.304Z,1257.00
2022-10-18T09:26:53.295Z,1159.00
2022-10-18T09:27:53.299Z,1150.00
2022-10-18T09:28:53.412Z,1072.00
2022-10-18T09:29:53.260Z,1176.00
2022-10-18T09:30:54.825Z,1145.00
2022-10-18T09:31:53.251Z,976.00
2022-10-18T09:32:53.231Z,1168.00
2022-10-18T09:33:53.247Z,927.00
2022-10-18T09:34:53.209Z,1312.00
2022-10-18T09:35:53.192Z,1274.00
2022-10-18T09:36:53.184Z,1525.00
2022-10-18T09:37:53.174Z,1140.00
2022-10-18T09:38:56.053Z,1334.00
2022-10-18T09:39:53.178Z,926.00
2022-10-18T09:40:53.145Z,1453.00
2022-10-18T09:41:53.128Z,1573.00
2022-10-18T09:42:53.118Z,898.00
2022-10-18T09:43:53.104Z,964.00
2022-10-18T09:44:53.117Z,1029.00
2022-10-18T09:45:53.088Z,1401.00
2022-10-18T09:46:53.076Z,1247.00
2022-10-18T09:47:53.061Z,1599.00
2022-10-18T09:48:53.050Z,1347.00
2022-10-18T09:49:53.070Z,1310.00
2022-10-18T09:50:53.031Z,1492.00
2022-10-18T09:51:53.014Z,1514.00
2022-10-18T09:52:53.009Z,1603.00
2022-10-18T09:53:53.005Z,1912.00
2022-10-18T09:54:52.988Z,1419.00
2022-10-18T09:55:53.020Z,1142.00
2022-10-18T09:56:52.992Z,1074.00
2022-10-18T09:57:52.950Z,1458.00
2022-10-18T09:58:52.941Z,1136.00
2022-10-18T09:59:52.935Z,1011.00
2022-10-18T10:00:52.920Z,975.00
2022-10-18T10:01:52.933Z,963.00
2022-10-18T10:02:52.945Z,997.00
2022-10-18T10:03:52.883Z,1083.00
2022-10-18T10:04:52.875Z,1112.00
2022-10-18T10:05:52.864Z,1114.00
2022-10-18T10:06:52.881Z,1000.00
2022-10-18T10:07:52.857Z,869.00
2022-10-18T10:08:52.831Z,831.00
2022-10-18T10:09:52.819Z,904.00
2022-10-18T10:10:52.810Z,819.00
2022-10-18T10:11:52.813Z,654.00
2022-10-18T10:12:52.810Z,654.00
2022-10-18T10:13:52.774Z,672.00
2022-10-18T10:14:52.771Z,633.00
2022-10-18T10:15:52.751Z,598.00
2022-10-18T10:16:52.747Z,617.00
2022-10-18T10:17:52.729Z,639.00
2022-10-18T10:18:52.742Z,690.00
2022-10-18T10:19:52.740Z,706.00
2022-10-18T10:20:52.718Z,649.00
2022-10-18T10:21:52.685Z,1105.00
2022-10-18T10:22:52.680Z,667.00
2022-10-18T10:23:52.705Z,997.00
2022-10-18T10:24:52.653Z,1126.00
2022-10-18T10:25:52.645Z,1066.00
2022-10-18T10:26:52.651Z,864.00
2022-10-18T10:27:52.621Z,807.00
2022-10-18T10:28:52.656Z,789.00
2022-10-18T10:29:52.671Z,697.00
2022-10-18T10:30:52.599Z,715.00
2022-10-18T10:31:52.575Z,665.00
2022-10-18T10:32:52.567Z,890.00
2022-10-18T10:33:52.553Z,754.00
2022-10-18T10:34:52.628Z,543.00
2022-10-18T10:35:53.850Z,417.00
2022-10-18T10:36:52.523Z,574.00
2022-10-18T10:37:52.506Z,669.00
2022-10-18T10:38:52.499Z,619.00
2022-10-18T10:40:13.749Z,633.00
2022-10-18T10:40:52.484Z,717.00
2022-10-18T10:41:52.463Z,643.00
2022-10-18T10:42:56.870Z,645.00
2022-10-18T10:43:52.452Z,574.00
2022-10-18T10:44:52.434Z,444.00
2022-10-18T10:45:52.444Z,314.00
2022-10-18T10:46:52.440Z,269.00
2022-10-18T10:47:52.424Z,256.00
2022-10-18T10:49:04.187Z,230.00
2022-10-18T10:49:52.383Z,275.00
2022-10-18T10:50:55.026Z,328.00
2022-10-18T10:52:02.393Z,298.00
2022-10-18T10:52:52.374Z,187.00
2022-10-18T10:53:52.336Z,118.00
2022-10-18T10:54:53.872Z,133.00
2022-10-18T10:55:52.315Z,153.00
2022-10-18T10:56:52.320Z,196.00
2022-10-18T10:57:52.328Z,238.00
2022-10-18T10:58:52.335Z,238.00
2022-10-18T10:59:52.281Z,191.00
2022-10-18T11:00:52.259Z,199.00
2022-10-18T11:01:52.253Z,237.00
2022-10-18T11:03:00.600Z,199.00
2022-10-18T11:03:52.318Z,240.00
2022-10-18T11:04:52.218Z,276.00
2022-10-18T11:05:52.219Z,245.00
2022-10-18T11:06:52.195Z,276.00
2022-10-18T11:07:52.238Z,272.00
2022-10-18T11:08:52.177Z,227.00
2022-10-18T11:09:52.163Z,178.00
2022-10-18T11:10:52.152Z,143.00
2022-10-18T11:11:52.155Z,133.00
2022-10-18T11:12:52.127Z,144.00
2022-10-18T11:13:57.057Z,115.00
2022-10-18T11:14:52.113Z,84.00
2022-10-18T11:15:52.108Z,92.00
2022-10-18T11:16:52.168Z,75.00
2022-10-18T11:17:52.124Z,87.00
2022-10-18T11:18:52.063Z,136.00
2022-10-18T11:19:52.058Z,137.00
2022-10-18T11:20:52.055Z,114.00
2022-10-18T11:21:52.030Z,128.00
2022-10-18T11:22:52.018Z,131.00
2022-10-18T11:23:52.012Z,149.00
2022-10-18T11:24:51.998Z,182.00
2022-10-18T11:25:51.997Z,210.00
2022-10-18T11:26:53.777Z,219.00
2022-10-18T11:27:51.965Z,215.00
2022-10-18T11:28:52.024Z,204.00
2022-10-18T11:29:51.945Z,223.00
2022-10-18T11:30:51.940Z,230.00
2022-10-18T11:31:51.945Z,268.00
2022-10-18T11:32:51.910Z,287.00
2022-10-18T11:34:08.236Z,274.00
2022-10-18T11:34:51.894Z,250.00
2022-10-18T11:35:51.879Z,249.00
2022-10-18T11:37:02.307Z,277.00
2022-10-18T11:37:51.870Z,236.00
2022-10-18T11:38:51.843Z,256.00
2022-10-18T11:39:51.833Z,300.00
2022-10-18T11:40:51.823Z,313.00
2022-10-18T11:41:51.812Z,299.00
2022-10-18T11:42:51.809Z,328.00
2022-10-18T11:44:02.318Z,422.00
2022-10-18T11:44:51.783Z,470.00
2022-10-18T11:45:51.771Z,544.00
2022-10-18T11:46:51.755Z,473.00
2022-10-18T11:47:53.683Z,441.00
2022-10-18T11:48:51.733Z,555.00
2022-10-18T11:49:51.739Z,579.00
2022-10-18T11:50:51.730Z,473.00
2022-10-18T11:52:07.206Z,496.00
2022-10-18T11:52:51.716Z,466.00
2022-10-18T11:53:52.117Z,315.00
2022-10-18T11:54:51.674Z,177.00
2022-10-18T11:55:51.661Z,201.00
2022-10-18T11:56:51.647Z,280.00
2022-10-18T11:57:51.640Z,403.00
2022-10-18T11:58:51.650Z,400.00
2022-10-18T11:59:51.616Z,286.00
2022-10-18T12:00:51.608Z,172.00
2022-10-18T12:01:51.595Z,163.00
2022-10-18T12:02:51.613Z,178.00
2022-10-18T12:03:51.577Z,181.00
2022-10-18T12:04:58.505Z,202.00
2022-10-18T12:05:51.559Z,234.00
2022-10-18T12:06:51.540Z,274.00
2022-10-18T12:07:51.532Z,319.00
2022-10-18T12:08:51.520Z,371.00
2022-10-18T12:09:51.528Z,426.00
2022-10-18T12:11:06.867Z,480.00
2022-10-18T12:11:55.691Z,522.00
2022-10-18T12:12:51.474Z,585.00
2022-10-18T12:13:51.468Z,1466.00
2022-10-18T12:14:51.451Z,927.00
2022-10-18T12:15:51.445Z,925.00
2022-10-18T12:16:58.434Z,777.00
2022-10-18T12:17:51.567Z,543.00
2022-10-18T12:19:50.395Z,412.00
2022-10-18T12:20:51.395Z,413.00
2022-10-18T12:21:51.392Z,532.00
2022-10-18T12:22:51.366Z,565.00
2022-10-18T12:23:51.369Z,480.00
2022-10-18T12:24:51.343Z,330.00
2022-10-18T12:25:51.332Z,278.00
2022-10-18T12:26:51.330Z,303.00
2022-10-18T12:27:51.398Z,314.00
2022-10-18T12:28:51.348Z,354.00
2022-10-18T12:29:51.290Z,397.00
2022-10-18T12:30:51.290Z,568.00
2022-10-18T12:31:51.272Z,740.00
2022-10-18T12:33:03.374Z,702.00
2022-10-18T12:33:51.314Z,580.00
2022-10-18T12:34:51.245Z,517.00
2022-10-18T12:35:51.226Z,458.00
2022-10-18T12:36:51.253Z,351.00
2022-10-18T12:37:51.208Z,212.00
2022-10-18T12:38:51.204Z,203.00
2022-10-18T12:40:09.077Z,170.00
2022-10-18T12:40:51.177Z,96.00
2022-10-18T12:41:51.163Z,106.00
2022-10-18T12:42:51.148Z,167.00
2022-10-18T12:43:51.151Z,151.00
2022-10-18T12:44:51.124Z,214.00
2022-10-18T12:45:51.122Z,211.00
2022-10-18T12:46:51.107Z,152.00
2022-10-18T12:47:51.201Z,141.00
2022-10-18T12:48:51.086Z,113.00
2022-10-18T12:49:51.075Z,154.00
2022-10-18T12:50:51.073Z,153.00
2022-10-18T12:51:51.055Z,87.00